Historyczne dane pomiarowe

Dodano dane terminowe – wersja testowa.

Dane z okresu 1951-2019

Wersja bazy: 1.34 [2019-03-16, lista zmian], aktualizacja planowana na 2019-04-15

Dane meteo z obszaru Polski uzyskane na podstawie danych udostępnionych przez Instytut Meteorologii i Gospodarki Wodnej – Państwowy Instytut Badawczy.

 

Wybierz Datę:    

       

TemperaturaWilgotnośćWiatrCiśnienieOpadyŚniegCzas trwania zjawisk
 Stacja t tx tn tng RH VA  wxwx mslp ppp RRR   cm mm wxwxwxwxwxwxwx
2010-02-25 2.8 10.2 -1.0 -2.7 92.0 6.8------ 0.0--x---------
2010-02-26 3.6 6.5 -0.1 -1.7 92.0 7.3------ 0.5--x---------
2010-02-27 4.9 9.5 -0.8 -2.9 75.0 6.4------ 0.0--x---------
2010-02-28 5.5 11.2 -1.0 -3.3 71.0 6.3------ 0.2--x---------
2010-03-01 5.9 10.2 1.2 -0.8 64.0 6.0------ 0.0--x---------
2010-03-02 2.7 6.5 -0.6 -2.7 70.0 5.1------ 0.0--x---------
2010-03-03 1.4 5.2 -3.2 -5.5 78.0 5.2------ 0.3--x---------
2010-03-04 -1.2 4.4 -5.1 -7.8 79.0 4.4------ 0.7--x---------
2010-03-05 -4.2 -1.2 -8.4-10.1 78.0 3.5------ 0.0--x---------
2010-03-06 -4.5 0.3 -9.0-10.1 75.0 3.2------ 0.0--x---------
2010-03-07 -3.4 0.1-10.3-11.3 82.0 3.9------ 1.3--x---------
2010-03-08 -2.3 1.8 -7.7 -9.2 82.0 4.2------ 0.0--x---------
2010-03-09 -3.8 2.6-10.8-11.4 74.0 3.2------ 0.0--x---------
2010-03-10 -2.1 5.2 -9.0-10.1 73.0 3.6------ 0.0--x---------
2010-03-11 -0.9 4.9 -5.4 -7.7 79.0 4.5------ 0.0--x---------
2010-03-12 1.1 3.6 -1.9 -1.8 92.0 6.1------ 3.7--x---------
2010-03-13 3.0 4.4 1.4 1.0 91.0 6.9------ 5.2--x---------
2010-03-14 3.5 6.7 -0.4 -1.0 89.0 7.0------ 10.0--x---------
2010-03-15 0.8 4.0 -1.6 -3.6 89.0 5.8------ 1.7--x---------
2010-03-16 1.7 4.6 -0.7 -2.3 82.0 5.6------ 0.2--x---------
2010-03-17 4.8 9.1 0.0 -2.1 80.0 6.8------ 0.0--x---------
2010-03-18 8.1 15.9 1.4 -0.6 70.0 7.4------ 0.0--x---------
2010-03-19 10.9 18.5 1.6 0.1 63.0 7.9------ 0.0--x---------
2010-03-20 12.1 15.3 8.3 6.7 78.0 11.2------ 0.7--x---------
2010-03-21 11.7 16.0 5.8 3.6 85.0 11.8------ 2.7--x---------
2010-03-22 6.6 13.0 1.4 -0.6 77.0 7.4------ 0.0--x---------
2010-03-23 7.6 15.1 1.1 -0.9 77.0 7.7------ 0.0--x---------
2010-03-24 8.1 16.8 -1.2 -3.0 73.0 7.6------ 0.0--x---------
2010-03-25 10.9 20.3 1.4 -1.3 76.0 9.6------ 0.0--x---------
2010-03-26 13.6 23.8 3.6 1.8 68.0 9.7------ 2.6--x---------
159.0 ms

 

Źródłem pochodzenia danych jest Instytut Meteorologii i Gospodarki Wodnej – Państwowy Instytut Badawczy. Dane Instytutu Meteorologii i Gospodarki Wodnej – Państwowego Instytutu Badawczego zostały przetworzone.

Dane źródłowe można odnaleźć na stronie https://dane.imgw.pl